Time;durP1;ratioP1;P1;durP2;ratioP2;P2;SDS_P1;SDS_P2;PMS_P1;PMS_P2;Temp;Humidity;BMP_temperature;BMP_pressure;BME280_temperature;BME280_humidity;BME280_pressure;Samples;Min_cycle;Max_cycle;Signal;HPM_P1;HPM_P2
2024/02/29 00:00:06;;;;;;;38.80;22.20;;;;;;;12.07;68.91;99495.52;232386;196;137719;-56
2024/02/29 00:05:32;;;;;;;40.70;23.40;;;;;;;12.02;68.97;99500.81;232213;201;164533;-57
2024/02/29 00:10:35;;;;;;;41.60;22.70;;;;;;;11.98;69.39;99501.06;232039;196;138831;-56
2024/02/29 00:15:38;;;;;;;39.70;21.30;;;;;;;11.95;69.48;99496.39;232244;201;138709;-57
2024/02/29 00:20:41;;;;;;;40.40;21.50;;;;;;;11.97;69.72;99496.48;231995;204;153711;-56
2024/02/29 00:25:45;;;;;;;47.60;22.10;;;;;;;12.01;69.75;99493.54;232225;201;139672;-57
2024/02/29 00:30:48;;;;;;;44.30;22.70;;;;;;;12.00;69.73;99497.00;231451;204;138642;-57
2024/02/29 00:35:51;;;;;;;42.80;22.10;;;;;;;11.99;69.74;99499.95;232379;204;153891;-57
2024/02/29 00:41:14;;;;;;;47.30;22.40;;;;;;;11.96;69.99;99500.47;231943;198;139110;-57
2024/02/29 00:46:18;;;;;;;44.30;22.00;;;;;;;11.93;70.04;99506.49;232149;201;143161;-56
2024/02/29 00:51:21;;;;;;;44.80;22.40;;;;;;;11.87;70.16;99507.19;231998;201;153935;-56
2024/02/29 00:56:25;;;;;;;43.00;21.80;;;;;;;11.81;70.37;99507.73;232064;204;137831;-57
2024/02/29 01:01:28;;;;;;;41.00;20.50;;;;;;;11.77;70.63;99504.77;232022;198;137912;-56
2024/02/29 01:06:31;;;;;;;40.80;20.70;;;;;;;11.75;70.65;99501.67;232025;204;154752;-57
2024/02/29 01:11:36;;;;;;;41.00;20.80;;;;;;;11.78;70.76;99497.73;232227;204;138779;-57
2024/02/29 01:16:40;;;;;;;39.70;20.90;;;;;;;11.82;70.83;99491.66;232178;201;140621;-57
2024/02/29 01:21:43;;;;;;;41.20;21.10;;;;;;;11.86;70.69;99491.83;232189;204;153407;-56
2024/02/29 01:26:46;;;;;;;35.90;20.30;;;;;;;11.82;70.63;99494.67;232013;197;138933;-56
2024/02/29 01:31:49;;;;;;;39.50;20.70;;;;;;;11.80;70.69;99493.38;232209;201;138613;-57
2024/02/29 01:36:53;;;;;;;42.70;22.20;;;;;;;11.78;70.80;99492.05;232200;204;153695;-56
2024/02/29 01:41:56;;;;;;;43.70;22.60;;;;;;;11.75;70.99;99490.33;232236;198;138551;-56
2024/02/29 01:47:01;;;;;;;42.50;22.40;;;;;;;11.69;71.20;99494.60;232054;204;138639;-56
2024/02/29 01:52:04;;;;;;;42.00;22.30;;;;;;;11.65;71.47;99492.00;231968;204;153828;-53
2024/02/29 01:57:09;;;;;;;42.70;21.30;;;;;;;11.63;71.52;99491.58;232085;198;139373;-56
2024/02/29 02:02:12;;;;;;;40.50;23.00;;;;;;;11.63;71.55;99486.21;232143;204;139614;-57
2024/02/29 02:07:16;;;;;;;42.80;22.50;;;;;;;11.65;71.61;99490.02;232045;201;155421;-56
2024/02/29 02:12:19;;;;;;;37.40;21.60;;;;;;;11.66;71.52;99490.27;232259;204;139712;-54
2024/02/29 02:17:22;;;;;;;44.80;22.60;;;;;;;11.67;71.50;99480.80;232260;204;137623;-57
2024/02/29 02:22:27;;;;;;;42.80;22.80;;;;;;;11.66;71.58;99477.16;232180;196;155677;-57
2024/02/29 02:27:30;;;;;;;43.90;24.20;;;;;;;11.64;71.70;99481.22;232124;201;138233;-56
2024/02/29 02:32:35;;;;;;;50.30;24.60;;;;;;;11.60;71.69;99482.41;232185;201;138394;-56
2024/02/29 02:37:39;;;;;;;46.70;25.00;;;;;;;11.56;71.90;99482.52;232062;201;154173;-56
2024/02/29 02:42:42;;;;;;;46.30;24.50;;;;;;;11.50;72.00;99483.45;232086;198;138601;-56
2024/02/29 02:47:45;;;;;;;46.70;24.80;;;;;;;11.49;72.06;99481.88;232283;204;138499;-56
2024/02/29 02:52:48;;;;;;;44.60;23.50;;;;;;;11.53;72.12;99481.09;232165;196;154694;-56
2024/02/29 02:57:51;;;;;;;40.80;22.10;;;;;;;11.58;72.08;99484.39;232184;204;138116;-56
2024/02/29 03:02:55;;;;;;;39.90;21.10;;;;;;;11.59;71.97;99487.88;231921;198;138676;-56
2024/02/29 03:07:59;;;;;;;42.30;21.60;;;;;;;11.57;71.92;99490.27;232064;204;153583;-56
2024/02/29 03:13:02;;;;;;;40.30;21.50;;;;;;;11.55;71.86;99494.66;232171;198;138766;-55
2024/02/29 03:18:07;;;;;;;43.00;21.60;;;;;;;11.52;71.99;99500.73;232351;200;137711;-56
2024/02/29 03:23:10;;;;;;;39.70;20.80;;;;;;;11.49;72.11;99497.52;232105;198;153644;-56
2024/02/29 03:28:13;;;;;;;41.50;21.30;;;;;;;11.46;72.02;99498.24;232024;204;138105;-55
2024/02/29 03:33:17;;;;;;;33.30;18.10;;;;;;;11.44;72.10;99492.66;232216;201;138454;-56
2024/02/29 03:38:21;;;;;;;31.50;18.40;;;;;;;11.43;72.16;99493.07;232004;204;153738;-55
2024/02/29 03:43:24;;;;;;;32.80;19.20;;;;;;;11.46;72.01;99492.70;232056;198;140351;-55
2024/02/29 03:48:28;;;;;;;34.10;19.20;;;;;;;11.49;71.86;99494.70;232145;198;137930;-55
2024/02/29 03:53:31;;;;;;;36.40;19.90;;;;;;;11.49;71.63;99491.66;232070;201;153375;-56
2024/02/29 03:58:34;;;;;;;31.80;17.80;;;;;;;11.47;71.57;99491.58;231946;201;141436;-56
2024/02/29 04:03:39;;;;;;;33.70;19.20;;;;;;;11.44;71.65;99484.66;232087;204;138514;-56
2024/02/29 04:08:42;;;;;;;28.90;18.40;;;;;;;11.40;71.78;99482.59;232252;204;152986;-54
2024/02/29 04:13:45;;;;;;;30.60;18.40;;;;;;;11.37;71.77;99483.85;232010;201;140147;-54
2024/02/29 04:18:49;;;;;;;31.40;18.90;;;;;;;11.35;71.82;99479.69;232144;204;138293;-55
2024/02/29 04:23:53;;;;;;;38.50;21.40;;;;;;;11.37;71.81;99480.43;232270;200;153236;-56
2024/02/29 04:28:56;;;;;;;43.00;23.40;;;;;;;11.42;71.93;99477.34;232171;204;138655;-58
2024/02/29 04:33:59;;;;;;;47.50;24.90;;;;;;;11.49;71.95;99470.67;232042;198;138833;-54
2024/02/29 04:39:02;;;;;;;47.80;25.60;;;;;;;11.55;71.81;99465.70;231959;204;153116;-57
2024/02/29 04:44:06;;;;;;;56.30;28.80;;;;;;;11.56;71.82;99455.36;232115;201;138378;-54
2024/02/29 04:49:09;;;;;;;54.80;27.70;;;;;;;11.55;71.90;99461.10;231638;197;138902;-56
2024/02/29 04:54:12;;;;;;;56.00;28.60;;;;;;;11.58;71.92;99469.30;232320;201;153881;-56
2024/02/29 04:59:16;;;;;;;56.70;26.80;;;;;;;11.55;71.88;99464.98;232037;204;138596;-56
2024/02/29 05:04:19;;;;;;;141.90;91.30;;;;;;;11.63;73.15;99459.75;232121;204;137937;-57
2024/02/29 05:09:25;;;;;;;290.90;222.70;;;;;;;11.70;72.46;99455.61;232205;204;153241;-56
2024/02/29 05:14:30;;;;;;;169.30;116.30;;;;;;;11.75;72.19;99459.36;232145;198;138400;-58
2024/02/29 05:19:34;;;;;;;60.60;30.80;;;;;;;11.77;72.13;99468.66;232054;198;138440;-57
2024/02/29 05:24:38;;;;;;;57.90;29.50;;;;;;;11.79;72.01;99471.07;232246;202;154074;-56
2024/02/29 05:29:41;;;;;;;335.90;234.40;;;;;;;11.77;72.23;99467.08;232373;204;137771;-57
2024/02/29 05:34:46;;;;;;;68.40;36.30;;;;;;;11.75;72.40;99467.91;232196;204;138600;-57
2024/02/29 05:39:49;;;;;;;60.20;31.00;;;;;;;11.72;72.44;99471.66;232133;204;154285;-56
2024/02/29 05:44:52;;;;;;;58.60;29.10;;;;;;;11.68;72.34;99479.71;232153;198;140220;-58
2024/02/29 05:49:56;;;;;;;56.00;27.70;;;;;;;11.63;72.51;99479.47;232331;201;138571;-59
2024/02/29 05:54:59;;;;;;;56.50;30.50;;;;;;;11.73;72.87;99479.37;232251;201;153891;-56
2024/02/29 06:00:04;;;;;;;59.20;28.70;;;;;;;11.82;72.34;99477.26;232457;197;138616;-55
2024/02/29 06:05:12;;;;;;;63.50;28.70;;;;;;;11.86;72.08;99479.34;231861;201;138236;-59
2024/02/29 06:10:17;;;;;;;58.70;27.90;;;;;;;11.80;71.94;99484.84;232329;201;152259;-55
2024/02/29 06:15:22;;;;;;;62.30;27.10;;;;;;;11.70;72.13;99483.67;231774;198;138566;-54
2024/02/29 06:20:26;;;;;;;61.60;28.80;;;;;;;11.66;72.36;99482.14;232033;204;138714;-56
2024/02/29 06:25:29;;;;;;;283.20;197.30;;;;;;;11.65;72.56;99486.46;232360;196;153132;-57
2024/02/29 06:30:32;;;;;;;60.20;27.80;;;;;;;11.68;73.22;99486.08;232188;204;139613;-57
2024/02/29 06:35:36;;;;;;;45.00;23.00;;;;;;;11.75;72.61;99483.58;232232;198;138796;-56
2024/02/29 06:40:39;;;;;;;47.00;24.90;;;;;;;11.84;72.08;99482.48;231042;198;152982;-57
2024/02/29 06:45:49;;;;;;;48.20;27.60;;;;;;;11.90;72.18;99484.67;232036;198;138564;-57
2024/02/29 06:50:53;;;;;;;41.80;23.20;;;;;;;11.94;71.73;99482.78;232164;204;139019;-57
2024/02/29 06:55:56;;;;;;;39.90;22.20;;;;;;;11.94;71.46;99481.89;232100;204;153354;-55
2024/02/29 07:01:00;;;;;;;43.30;23.10;;;;;;;11.91;71.51;99483.87;232260;204;138636;-57
2024/02/29 07:06:04;;;;;;;38.70;22.20;;;;;;;11.89;71.54;99483.81;232293;201;138475;-57
2024/02/29 07:11:11;;;;;;;41.90;23.90;;;;;;;11.88;71.53;99478.54;232130;204;153390;-56
2024/02/29 07:16:15;;;;;;;42.90;22.90;;;;;;;11.95;71.48;99474.95;232148;204;138867;-56
2024/02/29 07:21:18;;;;;;;41.30;23.80;;;;;;;11.98;71.15;99477.39;232321;198;138090;-57
2024/02/29 07:26:21;;;;;;;43.40;23.60;;;;;;;12.04;71.09;99478.27;232187;197;153856;-56
2024/02/29 07:31:25;;;;;;;49.10;23.90;;;;;;;12.08;70.81;99471.80;232206;201;138022;-57
2024/02/29 07:36:28;;;;;;;56.90;24.00;;;;;;;12.15;70.83;99471.95;232308;204;141007;-57
2024/02/29 07:41:32;;;;;;;52.70;24.40;;;;;;;12.21;70.68;99467.66;232399;197;153120;-57
2024/02/29 07:46:35;;;;;;;44.40;25.70;;;;;;;12.19;70.64;99467.73;232033;201;138649;-57
2024/02/29 07:51:38;;;;;;;51.20;24.40;;;;;;;12.22;70.77;99462.42;232239;204;138762;-56
2024/02/29 07:56:42;;;;;;;42.60;21.50;;;;;;;12.21;70.50;99465.11;231891;204;153578;-56
2024/02/29 08:01:45;;;;;;;41.50;22.90;;;;;;;12.28;70.57;99464.33;231486;204;139508;-57
2024/02/29 08:06:48;;;;;;;40.50;23.10;;;;;;;12.34;70.22;99457.20;232023;198;140501;-57
2024/02/29 08:11:52;;;;;;;46.40;22.90;;;;;;;12.42;70.22;99453.50;232271;204;154107;-56
2024/02/29 08:16:55;;;;;;;41.20;22.60;;;;;;;12.46;70.04;99451.80;232206;204;138947;-56
2024/02/29 08:21:58;;;;;;;47.10;22.00;;;;;;;12.51;69.98;99450.10;232130;198;138669;-55
2024/02/29 08:27:02;;;;;;;37.70;21.10;;;;;;;12.49;70.05;99451.61;232246;204;155728;-56
2024/02/29 08:32:06;;;;;;;36.40;18.90;;;;;;;12.48;70.13;99447.60;232190;198;138304;-56
2024/02/29 08:37:10;;;;;;;37.90;19.90;;;;;;;12.52;69.91;99441.09;232156;197;139335;-57
2024/02/29 08:42:13;;;;;;;34.30;21.50;;;;;;;12.64;69.80;99440.36;231702;204;153211;-57
2024/02/29 08:47:17;;;;;;;33.70;20.90;;;;;;;12.74;69.61;99445.73;232212;201;137689;-58
2024/02/29 08:52:20;;;;;;;39.60;21.20;;;;;;;12.79;69.44;99436.52;232130;197;138091;-57
2024/02/29 08:57:24;;;;;;;39.30;21.00;;;;;;;12.77;69.45;99430.05;232310;204;154542;-57
2024/02/29 09:02:27;;;;;;;39.50;20.30;;;;;;;12.84;69.41;99433.92;232016;201;138358;-55
2024/02/29 09:07:30;;;;;;;39.50;21.80;;;;;;;12.84;69.29;99426.62;232132;204;137445;-57
2024/02/29 09:12:34;;;;;;;34.80;19.80;;;;;;;12.85;69.17;99423.36;232190;198;154415;-56
2024/02/29 09:17:37;;;;;;;34.20;19.30;;;;;;;12.92;69.17;99421.61;232344;200;137833;-57
2024/02/29 09:22:40;;;;;;;37.40;21.00;;;;;;;13.01;69.08;99424.45;232274;201;139530;-57
2024/02/29 09:27:44;;;;;;;38.10;21.30;;;;;;;13.05;68.72;99428.25;232029;204;154358;-56
2024/02/29 09:32:52;;;;;;;42.50;22.70;;;;;;;13.09;68.72;99432.08;231872;198;138412;-57
2024/02/29 09:37:55;;;;;;;42.10;21.70;;;;;;;13.14;68.66;99430.33;231880;197;138004;-57
2024/02/29 09:42:59;;;;;;;40.20;23.00;;;;;;;13.15;68.60;99429.92;232071;201;153715;-57
2024/02/29 09:48:05;;;;;;;44.60;24.00;;;;;;;13.14;68.63;99424.48;232112;204;140622;-57
2024/02/29 09:53:09;;;;;;;42.10;23.60;;;;;;;13.12;68.65;99425.45;232054;204;138882;-57
2024/02/29 09:58:17;;;;;;;41.10;24.30;;;;;;;13.16;68.78;99414.67;232166;204;153914;-58
2024/02/29 10:03:20;;;;;;;63.60;37.10;;;;;;;13.34;72.38;99404.73;232027;204;138509;-57
2024/02/29 10:08:23;;;;;;;41.20;22.00;;;;;;;14.07;69.81;99396.90;232048;198;138571;-56
2024/02/29 10:13:38;;;;;;;40.30;22.70;;;;;;;14.04;68.07;99392.48;232196;205;153315;-57
2024/02/29 10:18:42;;;;;;;45.00;23.50;;;;;;;14.02;67.39;99388.90;232024;201;137570;-55
2024/02/29 10:23:45;;;;;;;45.20;23.40;;;;;;;13.99;67.43;99388.17;232197;201;138652;-57
2024/02/29 10:28:48;;;;;;;47.00;25.00;;;;;;;14.00;67.31;99381.69;232141;201;153800;-57
2024/02/29 10:33:52;;;;;;;43.30;23.20;;;;;;;14.01;67.26;99379.53;231944;201;138525;-57
2024/02/29 10:38:55;;;;;;;193.40;146.00;;;;;;;14.09;67.54;99371.27;231487;196;138810;-58
2024/02/29 10:44:03;;;;;;;47.60;27.40;;;;;;;14.19;67.43;99363.91;232262;204;153298;-57
2024/02/29 10:49:35;;;;;;;41.40;23.50;;;;;;;14.18;66.99;99363.10;232102;198;138481;-57
2024/02/29 10:54:55;;;;;;;43.00;23.50;;;;;;;14.17;66.82;99358.70;232354;204;139080;-57
2024/02/29 11:00:02;;;;;;;43.90;23.10;;;;;;;14.23;66.64;99355.29;232294;201;153817;-58
2024/02/29 11:05:07;;;;;;;47.70;24.10;;;;;;;14.23;66.49;99335.61;232183;201;139701;-57
2024/02/29 11:10:11;;;;;;;40.90;22.90;;;;;;;14.21;66.65;99327.73;232109;198;140172;-57
2024/02/29 11:15:24;;;;;;;41.20;22.40;;;;;;;14.27;67.01;99325.90;232053;204;153110;-56
2024/02/29 11:20:29;;;;;;;41.80;23.60;;;;;;;14.38;66.81;99324.20;232016;198;139774;-56
2024/02/29 11:25:34;;;;;;;45.20;26.10;;;;;;;14.48;66.61;99315.77;232256;197;138543;-55
2024/02/29 11:30:37;;;;;;;42.60;24.60;;;;;;;14.60;66.42;99313.14;232415;201;153311;-57
2024/02/29 11:35:42;;;;;;;44.90;26.60;;;;;;;14.68;66.07;99304.33;232316;204;138451;-57
2024/02/29 11:40:45;;;;;;;48.60;27.60;;;;;;;14.71;65.82;99290.73;232216;201;138144;-58
2024/02/29 11:45:48;;;;;;;53.10;28.10;;;;;;;14.70;65.75;99288.86;232241;201;153626;-58
2024/02/29 11:50:51;;;;;;;47.10;27.00;;;;;;;14.67;65.88;99289.37;232012;204;138286;-57
2024/02/29 11:55:55;;;;;;;48.70;27.20;;;;;;;14.65;65.82;99283.28;232287;204;138294;-57
2024/02/29 12:01:15;;;;;;;49.90;27.60;;;;;;;14.61;65.81;99278.02;232301;204;154247;-56
2024/02/29 12:06:20;;;;;;;46.90;26.50;;;;;;;14.57;65.72;99269.58;232360;201;138368;-57
2024/02/29 12:11:23;;;;;;;48.20;27.10;;;;;;;14.56;65.64;99261.09;232124;204;138326;-56
2024/02/29 12:16:28;;;;;;;50.60;27.90;;;;;;;14.58;65.55;99257.77;232229;201;153812;-57
2024/02/29 12:21:35;;;;;;;54.80;28.50;;;;;;;14.60;65.65;99253.48;232179;204;138485;-56
2024/02/29 12:26:40;;;;;;;49.10;27.80;;;;;;;14.62;65.70;99247.41;231843;198;137878;-57
2024/02/29 12:31:44;;;;;;;50.60;27.20;;;;;;;14.66;65.76;99240.67;232256;200;154200;-57
2024/02/29 12:36:47;;;;;;;45.70;26.20;;;;;;;14.70;65.59;99233.09;232302;204;139519;-57
2024/02/29 12:41:51;;;;;;;44.90;26.90;;;;;;;14.77;64.97;99235.05;232235;204;138779;-56
2024/02/29 12:46:55;;;;;;;51.00;28.50;;;;;;;14.84;64.60;99231.48;232124;204;153265;-57
2024/02/29 12:51:59;;;;;;;53.60;28.40;;;;;;;14.90;64.58;99231.89;231996;198;139553;-57
2024/02/29 12:57:06;;;;;;;50.10;27.50;;;;;;;14.94;64.38;99229.15;232229;201;138392;-57
2024/02/29 13:02:11;;;;;;;50.50;27.30;;;;;;;14.98;63.89;99216.79;231906;204;153382;-57
2024/02/29 13:07:15;;;;;;;43.90;27.00;;;;;;;15.02;63.81;99204.55;232224;204;138469;-57
2024/02/29 13:12:18;;;;;;;49.30;27.40;;;;;;;14.99;63.67;99201.17;232185;198;138128;-57
2024/02/29 13:17:22;;;;;;;50.60;27.30;;;;;;;14.96;63.67;99191.93;232067;201;153346;-57
2024/02/29 13:22:26;;;;;;;49.70;27.70;;;;;;;15.00;63.83;99183.66;232049;201;137879;-57
2024/02/29 13:27:29;;;;;;;44.30;26.30;;;;;;;15.12;64.11;99175.30;232142;198;140959;-57
2024/02/29 13:32:33;;;;;;;48.60;27.10;;;;;;;15.29;63.61;99165.64;232252;201;153626;-58
2024/02/29 13:37:37;;;;;;;46.60;26.90;;;;;;;15.43;63.11;99156.58;232233;204;138206;-57
2024/02/29 13:42:40;;;;;;;47.20;26.40;;;;;;;15.62;62.90;99151.17;232210;196;137937;-55
2024/02/29 13:47:50;;;;;;;213.80;163.00;;;;;;;15.73;62.37;99145.08;232170;204;154293;-58
2024/02/29 13:52:55;;;;;;;58.60;34.50;;;;;;;15.73;62.48;99140.78;232036;197;138162;-56
2024/02/29 13:57:59;;;;;;;51.60;28.40;;;;;;;15.77;61.94;99145.13;232069;198;139180;-57
2024/02/29 14:03:02;;;;;;;43.90;26.50;;;;;;;15.75;61.83;99137.55;231900;205;155234;-57
2024/02/29 14:08:07;;;;;;;49.40;28.00;;;;;;;15.72;61.79;99135.33;232003;198;138106;-61
2024/02/29 14:13:11;;;;;;;48.30;26.70;;;;;;;15.70;61.83;99134.09;232186;204;137583;-58
2024/02/29 14:18:14;;;;;;;45.60;27.00;;;;;;;15.72;62.12;99127.13;232029;201;153881;-59
2024/02/29 14:23:19;;;;;;;47.60;28.10;;;;;;;15.60;62.07;99125.20;231984;204;137887;-59
2024/02/29 14:28:24;;;;;;;45.20;27.50;;;;;;;15.47;62.62;99119.88;231989;201;138551;-58
2024/02/29 14:33:27;;;;;;;;;;;;;;;15.35;62.88;99118.96;232208;201;153512;-58
2024/02/29 14:38:31;;;;;;;45.80;26.90;;;;;;;15.33;63.27;99118.29;232095;204;137800;-60
2024/02/29 14:43:35;;;;;;;38.10;26.80;;;;;;;15.34;63.23;99116.71;232233;196;138382;-58
2024/02/29 14:48:39;;;;;;;42.70;27.50;;;;;;;15.37;63.20;99115.27;232249;199;155021;-59
2024/02/29 14:53:43;;;;;;;41.10;26.90;;;;;;;15.47;63.18;99114.46;232157;201;139502;-59
2024/02/29 14:58:47;;;;;;;40.30;27.60;;;;;;;15.43;62.65;99112.30;231874;196;138611;-60
2024/02/29 15:03:53;;;;;;;44.90;27.00;;;;;;;15.25;62.72;99114.27;231943;201;153298;-59
2024/02/29 15:08:57;;;;;;;36.80;26.00;;;;;;;15.11;63.03;99108.44;232108;198;137471;-59
2024/02/29 15:14:00;;;;;;;46.10;29.60;;;;;;;14.99;63.28;99105.26;232263;201;138731;-59
2024/02/29 15:19:04;;;;;;;41.10;27.40;;;;;;;14.88;63.49;99099.50;232143;196;153502;-60
2024/02/29 15:24:07;;;;;;;108.60;66.00;;;;;;;14.83;64.00;99101.88;232102;204;138135;-58
2024/02/29 15:29:11;;;;;;;48.20;29.20;;;;;;;14.78;64.05;99098.84;232119;204;138399;-59
2024/02/29 15:34:14;;;;;;;43.60;26.90;;;;;;;14.73;64.02;99092.08;231897;198;154288;-59
2024/02/29 15:39:17;;;;;;;46.30;26.80;;;;;;;14.71;64.22;99089.59;231949;201;139273;-59
2024/02/29 15:44:20;;;;;;;40.00;27.80;;;;;;;14.71;64.17;99090.51;232129;204;138078;-59
2024/02/29 15:49:24;;;;;;;42.10;28.90;;;;;;;14.65;64.14;99089.65;231993;204;154769;-58
2024/02/29 15:54:28;;;;;;;40.80;28.10;;;;;;;14.58;64.24;99089.21;232285;196;138813;-59
2024/02/29 15:59:31;;;;;;;50.60;28.80;;;;;;;14.47;64.42;99087.99;232124;196;138551;-58
2024/02/29 16:04:35;;;;;;;48.10;29.80;;;;;;;14.37;64.69;99081.11;232115;204;153590;-59
2024/02/29 16:09:41;;;;;;;50.00;29.90;;;;;;;14.28;64.92;99081.98;232114;204;142145;-58
2024/02/29 16:14:48;;;;;;;47.50;30.10;;;;;;;14.18;65.20;99078.80;232216;204;138286;-59
2024/02/29 16:19:51;;;;;;;49.50;31.70;;;;;;;14.06;65.46;99080.42;232328;204;153024;-59
2024/02/29 16:24:55;;;;;;;49.40;29.90;;;;;;;13.97;65.70;99082.75;232234;204;138402;-59
2024/02/29 16:29:58;;;;;;;48.50;30.70;;;;;;;13.83;65.96;99085.56;232147;198;138595;-58
2024/02/29 16:35:03;;;;;;;181.10;125.40;;;;;;;13.73;66.53;99074.17;232136;204;154304;-50
2024/02/29 16:40:07;;;;;;;45.10;30.10;;;;;;;13.72;66.71;99075.15;232196;201;138631;-54
2024/02/29 16:45:10;;;;;;;49.00;30.10;;;;;;;13.70;66.70;99078.46;232172;204;138399;-57
2024/02/29 16:50:15;;;;;;;53.20;30.80;;;;;;;13.70;66.70;99078.13;232174;202;153312;-57
2024/02/29 16:55:18;;;;;;;61.40;32.00;;;;;;;13.65;66.77;99078.34;232158;198;141456;-57
2024/02/29 17:00:23;;;;;;;50.20;29.30;;;;;;;13.59;66.83;99072.38;232257;201;137849;-58
2024/02/29 17:05:26;;;;;;;58.30;38.30;;;;;;;13.55;67.32;99075.36;231913;204;156680;-57
2024/02/29 17:10:30;;;;;;;106.70;74.20;;;;;;;13.49;67.49;99070.44;232099;201;138071;-56
2024/02/29 17:15:34;;;;;;;51.10;31.40;;;;;;;13.45;67.59;99073.06;231934;204;139754;-57
2024/02/29 17:20:40;;;;;;;51.10;31.20;;;;;;;13.34;67.63;99080.80;232134;196;153401;-58
2024/02/29 17:25:43;;;;;;;44.40;29.00;;;;;;;13.29;67.91;99080.84;232106;197;138382;-60
2024/02/29 17:30:46;;;;;;;51.70;30.20;;;;;;;13.23;67.76;99078.36;231948;198;139536;-56
2024/02/29 17:35:50;;;;;;;47.10;30.20;;;;;;;13.21;67.83;99071.77;231958;201;153334;-57
2024/02/29 17:40:53;;;;;;;56.90;39.40;;;;;;;13.21;68.21;99070.11;232060;200;138179;-56
2024/02/29 17:45:56;;;;;;;53.10;33.20;;;;;;;13.19;67.89;99068.48;232128;198;138671;-53
2024/02/29 17:51:00;;;;;;;56.60;34.80;;;;;;;13.14;67.94;99067.67;232180;200;153243;-57
2024/02/29 17:56:04;;;;;;;54.60;34.30;;;;;;;13.05;68.05;99063.48;232135;201;138788;-58
2024/02/29 18:01:07;;;;;;;58.90;36.20;;;;;;;12.95;68.30;99061.30;232000;204;139105;-58
2024/02/29 18:06:22;;;;;;;59.10;37.00;;;;;;;12.88;68.49;99054.05;231715;205;153843;-54
2024/02/29 18:11:28;;;;;;;56.30;35.80;;;;;;;12.76;68.63;99046.46;231804;203;138511;-56
2024/02/29 18:16:32;;;;;;;58.80;34.90;;;;;;;12.66;68.88;99042.56;231591;197;139307;-58
2024/02/29 18:21:44;;;;;;;64.20;36.60;;;;;;;12.61;69.06;99035.25;231887;197;153241;-54
2024/02/29 18:26:48;;;;;;;59.80;37.80;;;;;;;12.62;69.18;99035.94;231786;198;140701;-55
2024/02/29 18:31:53;;;;;;;253.10;178.20;;;;;;;12.64;69.39;99035.75;232221;204;139186;-56
2024/02/29 18:36:56;;;;;;;66.40;40.20;;;;;;;12.68;69.50;99030.48;232102;198;156592;-56
2024/02/29 18:41:59;;;;;;;257.90;211.00;;;;;;;12.70;69.55;99026.64;232027;198;139259;-56
2024/02/29 18:47:04;;;;;;;71.30;42.30;;;;;;;12.65;69.41;99021.42;232008;201;139166;-55
2024/02/29 18:52:08;;;;;;;63.80;38.00;;;;;;;12.58;69.08;99020.35;232084;204;152909;-55
2024/02/29 18:57:12;;;;;;;59.70;37.00;;;;;;;12.45;69.33;99008.60;231951;204;138455;-55
2024/02/29 19:02:15;;;;;;;62.80;37.00;;;;;;;12.38;69.32;99006.81;232225;201;142281;-53
2024/02/29 19:07:19;;;;;;;64.60;35.80;;;;;;;12.30;69.86;99005.38;232053;201;153102;-53
2024/02/29 19:12:25;;;;;;;60.50;36.70;;;;;;;12.37;69.75;99001.39;232246;200;143670;-56
2024/02/29 19:17:29;;;;;;;;;;;;;;;12.36;69.61;98993.42;232202;204;139113;-52
2024/02/29 19:22:32;;;;;;;64.30;38.00;;;;;;;12.37;69.77;98986.23;232181;196;154620;-56
2024/02/29 19:27:38;;;;;;;;;;;;;;;12.52;69.90;98974.48;232142;204;138193;-54
2024/02/29 19:32:41;;;;;;;60.50;36.60;;;;;;;12.51;69.28;98973.15;232245;204;137793;-56
2024/02/29 19:37:45;;;;;;;244.00;178.20;;;;;;;12.46;69.68;98972.08;232229;198;153212;-63
2024/02/29 19:42:48;;;;;;;60.80;38.00;;;;;;;12.53;69.95;98968.17;232218;204;139541;-55
2024/02/29 19:47:51;;;;;;;64.10;37.90;;;;;;;12.43;69.27;98968.17;232129;201;138687;-55
2024/02/29 19:52:55;;;;;;;60.60;39.00;;;;;;;12.30;69.37;98968.73;231959;201;153547;-53
2024/02/29 19:57:58;;;;;;;57.50;35.90;;;;;;;12.22;69.74;98965.26;232167;198;137895;-55
2024/02/29 20:03:02;;;;;;;440.90;311.80;;;;;;;12.24;70.25;98966.32;232181;196;138927;-57
2024/02/29 20:08:06;;;;;;;63.80;40.20;;;;;;;12.35;70.10;98962.56;232177;201;153255;-57
2024/02/29 20:13:10;;;;;;;61.60;36.50;;;;;;;12.33;69.68;98966.43;232063;204;140373;-53
2024/02/29 20:18:15;;;;;;;62.10;37.40;;;;;;;12.28;69.69;98962.65;231066;198;138726;-54
2024/02/29 20:23:20;;;;;;;68.90;43.00;;;;;;;12.21;69.73;98961.59;231562;204;154647;-53
2024/02/29 20:28:24;;;;;;;82.70;49.50;;;;;;;12.16;70.27;98957.27;232065;201;142916;-55
2024/02/29 20:33:27;;;;;;;69.30;39.90;;;;;;;12.11;70.17;98944.29;232083;204;138390;-52
2024/02/29 20:38:31;;;;;;;66.10;39.80;;;;;;;12.00;70.33;98942.36;232305;204;154661;-52
2024/02/29 20:43:34;;;;;;;108.70;72.90;;;;;;;11.96;70.91;98941.09;232228;201;138258;-55
2024/02/29 20:48:39;;;;;;;74.10;44.70;;;;;;;12.00;71.42;98936.88;232243;201;138589;-54
2024/02/29 20:53:42;;;;;;;63.40;38.90;;;;;;;12.03;70.92;98928.13;232101;202;275672;-57
2024/02/29 20:58:45;;;;;;;63.30;39.90;;;;;;;12.02;70.94;98925.91;232112;204;139443;-55
2024/02/29 21:03:49;;;;;;;65.20;40.20;;;;;;;12.01;70.92;98918.52;232181;204;139873;-54
2024/02/29 21:08:52;;;;;;;75.30;47.70;;;;;;;12.01;71.04;98914.05;232159;204;153305;-53
2024/02/29 21:13:56;;;;;;;64.90;41.20;;;;;;;12.05;70.87;98910.73;232204;204;138358;-57
2024/02/29 21:18:59;;;;;;;67.40;41.00;;;;;;;11.96;70.81;98906.73;232302;200;138291;-55
2024/02/29 21:24:03;;;;;;;67.40;41.40;;;;;;;11.90;70.96;98900.44;232068;204;153883;-51
2024/02/29 21:29:07;;;;;;;65.50;41.60;;;;;;;11.81;70.94;98895.14;232213;204;137457;-54
2024/02/29 21:34:12;;;;;;;70.80;43.40;;;;;;;11.72;71.26;98886.15;232116;200;137739;-54
2024/02/29 21:39:15;;;;;;;64.10;39.40;;;;;;;11.65;71.50;98882.20;232017;204;154660;-54
2024/02/29 21:44:26;;;;;;;63.70;40.00;;;;;;;11.64;71.72;98874.84;232196;204;139640;-55
2024/02/29 21:49:30;;;;;;;68.50;43.20;;;;;;;11.65;71.67;98870.30;232248;204;138364;-54
2024/02/29 21:54:33;;;;;;;67.20;43.30;;;;;;;11.65;71.67;98861.45;232323;204;153683;-54
2024/02/29 21:59:36;;;;;;;72.90;42.50;;;;;;;11.64;71.72;98859.89;232198;201;137766;-53
2024/02/29 22:04:40;;;;;;;64.60;41.30;;;;;;;11.62;71.79;98856.10;232187;204;138288;-55
2024/02/29 22:09:43;;;;;;;72.10;42.60;;;;;;;11.58;71.77;98851.39;231874;201;154927;-51
2024/02/29 22:14:46;;;;;;;70.30;44.60;;;;;;;11.51;71.90;98848.51;232036;204;138221;-53
2024/02/29 22:19:50;;;;;;;68.40;41.80;;;;;;;11.46;71.90;98846.72;232031;201;137450;-53
2024/02/29 22:25:02;;;;;;;70.60;43.40;;;;;;;11.35;72.11;98847.88;232017;204;290984;-54
2024/02/29 22:30:06;;;;;;;67.60;41.30;;;;;;;11.28;72.28;98843.88;231370;204;139149;-57
2024/02/29 22:35:10;;;;;;;67.60;40.60;;;;;;;11.21;72.38;98840.44;232284;204;139180;-54
2024/02/29 22:40:14;;;;;;;71.40;43.40;;;;;;;11.20;72.61;98831.66;232128;204;154669;-53
2024/02/29 22:45:17;;;;;;;72.30;45.00;;;;;;;11.24;72.67;98823.06;232020;204;138364;-55
2024/02/29 22:50:20;;;;;;;73.70;45.80;;;;;;;11.21;72.63;98814.87;232212;204;138797;-53
2024/02/29 22:55:23;;;;;;;69.70;43.60;;;;;;;11.17;72.67;98811.09;232064;200;153447;-53
2024/02/29 23:00:30;;;;;;;74.10;43.60;;;;;;;11.10;72.81;98806.89;232096;204;137454;-56